AirNav   Pilot Hours Calculator
 
 1213 users online  

M90 William Robert Johnston Municipal Airport
Mendota, California, USA

GOING TO MENDOTA?


FAA INFORMATION EFFECTIVE 25 MARCH 2021

Location

FAA Identifier: M90
Lat/Long: 36-45-31.0000N 120-22-17.0000W
36-45.516667N 120-22.283333W
36.7586111,-120.3713889
(estimated)
Elevation: 162 ft. / 49 m (estimated)
Variation: 15E (1985)
Time zone: UTC -7 (UTC -8 during Standard Time)
Zip code: 93640

Airport Operations

Airport use: Open to the public
Activation date: 08/1957
Control tower: no
ARTCC: OAKLAND CENTER
FSS: RANCHO MURIETA FLIGHT SERVICE STATION
NOTAMs facility: RIU (NOTAM-D service available)
Attendance: UNATNDD
Wind indicator: yes
Segmented circle: yes

Airport Communications

CTAF: 122.9
WX ASOS at MAE (19 nm NE): 134.725 (559-674-1781)

Nearby radio navigation aids

VOR radial/distance  VOR name  Freq  Var
PXNr066/19.8PANOCHE VORTAC112.6016E
HYPr162/27.7EL NIDO VOR/DME114.2015E

Airport Services

Parking: tiedowns

Runway Information

Runway 15/33

Dimensions: 3499 x 50 ft. / 1066 x 15 m
Surface: asphalt, in fair condition
Weight bearing capacity: 
Single wheel: 12.5
RUNWAY 15  RUNWAY 33
Latitude: 36-45.798333N36-45.251500N
Longitude: 120-22.404667W120-22.177167W
Traffic pattern: leftright
Displaced threshold: no777 ft.
Markings: basic, in fair conditionbasic, in fair condition
Runway end identifier lights: nono
Obstructions: none17 ft. bldg, 423 ft. from runway, 190 ft. left of centerline, 13:1 slope to clear
APCH RATIO TO DSPLCD THR 50:1.

Airport Ownership and Management from official FAA records

Ownership: Publicly-owned
Owner: CITY OF MENDOTA
643 QUINCE ST
MENDOTA, CA 93640-2334
Phone 559-655-4298
Manager: CRISTIAN GONZALES
643 QUINCE ST
MENDOTA, CA 93640-2334
Phone (559) 655-4298
CITY MANAGER X 109.

Airport Operational Statistics

Aircraft operations: avg 77/week *
50% transient general aviation
50% local general aviation
* for 12-month period ending 12 April 2019

Additional Remarks

ARPT CLSD NIGHTS.
FOR CD CTC NORCAL APCH AT 916-361-0516.
PARL TWY ROUGH/UNEVEN SFC; EXTSV ASPH RPR AND PATCHING.

Instrument Procedures

There are no published instrument procedures at M90.

Some nearby airports with instrument procedures:

F34 - Firebaugh Airport (8 nm NW)
KMAE - Madera Municipal Airport (19 nm NE)
KFCH - Fresno ChandlerExecutive Airport (27 nm E)
KLSN - Los Banos Municipal Airport (30 nm NW)
KFAT - Fresno Yosemite International Airport (31 nm E)
 
Loc | Ops | Rwys | IFR | FBO | Links
Com | Nav | Svcs | Stats | Notes
Area around M90 (William Robert Johnston Municipal Airport)
 
Road maps at: MapQuest Bing Google
 
Aerial photo
WARNING: Photo may not be current or correct
Aerial photo of M90 (William Robert Johnston Municipal Airport)
Do you have a better or more recent aerial photo of William Robert Johnston Municipal Airport that you would like to share? If so, please send us your photo.

 
Sectional chart

 
Airport distance calculator
Flying to William Robert Johnston Municipal Airport? Find the distance to fly.

From to M90

Sunrise and sunset
Times for 18-Apr-2021
 Local
(UTC-7)
 Zulu
(UTC)
Morning civil twilight05:5812:58
Sunrise06:2413:24
Sunset19:3702:37
Evening civil twilight20:0403:04

Current date and time
Zulu (UTC)  18-Apr-2021 20:29:17
Local (UTC-7)  18-Apr-2021 13:29:17
 
METAR
KMAE 
18nm NE 
181953Z AUTO 33005KT 10SM CLR 27/02 A3009 RMK AO2 SLP187 T02720017
KFAT 
32nm E 
181953Z 00000KT 10SM CLR 27/M01 A3008 RMK AO2 SLP183 T02721006
KMCE 
32nm N 
181953Z AUTO VRB06KT 10SM CLR 28/01 A3008 RMK AO2 SLP183 T02780011 $
KNLC 
33nm SE 
181956Z 03008KT 10SM CLR 28/03 A3008 RMK AO2 SLP184 RH/20 T02830033
TAF
KFAT 
32nm E 
181727Z 1818/1918 30006KT P6SM SKC
KMCE 
32nm N 
181727Z 1818/1918 32006KT P6SM SKC
KNLC 
33nm SE 
TAF 1815/1915 VRB06KT 9999 SKC QNH3001INS FM181800 35009KT 9999 SKC QNH2998INS FM190300 VRB06KT 9999 SKC QNH3003INS AUTOMATED SENSOR METWATCH 1901 TIL 1916 T31/1823Z T09/1913Z
KMER 
39nm N 
181727Z 1818/1918 32006KT P6SM SKC= TAF KPOB 181700Z 1817/1923 36007KT 9999 SCT060 QNH2980INS BECMG 1822/1823 VRB03KT 9999 BKN050 BKN200 QNH2980INS BECMG 1916/1917 30012G18KT 9999 BKN060 510003 QNH2980INS TX23/1820Z TN09/1910Z
NOTAMs
Click for the latest NOTAMs
NOTAMs are issued by the DoD/FAA and will open in a separate window not controlled by AirNav.

 

 
 

Would you like to see your business listed on this page?

 If your business provides an interesting product or service to pilots, flight crews, aircraft, or users of the William Robert Johnston Municipal Airport, you should consider listing it here.  To start the listing process, click on the button below
 
Add a business
 

Other Pages about William Robert Johnston Municipal Airport

Update a link
 
Copyright © AirNav, LLC. All rights reserved. Privacy Policy  Contact